Time;durP1;ratioP1;P1;durP2;ratioP2;P2;SDS_P1;SDS_P2;PMS_P1;PMS_P2;Temp;Humidity;BMP_temperature;BMP_pressure;BME280_temperature;BME280_humidity;BME280_pressure;Samples;Min_cycle;Max_cycle;Signal;HPM_P1;HPM_P2
2022/02/03 00:00:32;;;;;;;;;;;;;;;21.08;43.49;101440.28;5060063;28;4157;-59
2022/02/03 00:03:05;;;;;;;;;;;;;;;21.08;43.39;101446.03;5077284;28;4177;-59
2022/02/03 00:08:12;;;;;;;;;;;;;;;21.07;43.36;101444.53;5060405;28;4046;-59
2022/02/03 00:22:10;;;;;;;;;;;;;;;21.07;43.36;101456.06;5080486;28;4059;-59
2022/02/03 00:24:45;;;;;;;;;;;;;;;21.07;43.38;101462.56;5078830;28;4020;-59
2022/02/03 00:27:23;;;;;;;;;;;;;;;21.07;43.28;101467.56;5062037;28;4065;-59
2022/02/03 00:29:56;;;;;;;;;;;;;;;21.06;43.32;101471.84;5066499;28;4125;-59
2022/02/03 00:35:24;;;;;;;;;;;;;;;21.06;43.27;101480.47;5066332;28;4224;-59
2022/02/03 00:48:41;;;;;;;;;;;;;;;21.07;43.35;101479.09;5082235;28;4195;-59
2022/02/03 00:51:07;;;;;;;;;;;;;;;21.07;43.33;101479.09;5084114;28;5291;-59
2022/02/03 00:53:34;;;;;;;;;;;;;;;21.05;43.43;101476.88;5084510;28;4077;-60
2022/02/03 00:56:02;;;;;;;;;;;;;;;21.05;43.31;101481.84;5082685;28;6513;-60
2022/02/03 00:58:28;;;;;;;;;;;;;;;21.04;43.22;101481.13;5065223;28;4263;-59
2022/02/03 01:00:57;;;;;;;;;;;;;;;21.05;43.35;101476.88;5057685;28;4224;-61
2022/02/03 01:03:25;;;;;;;;;;;;;;;21.04;43.20;101486.13;5082973;28;5375;-60
2022/02/03 01:05:52;;;;;;;;;;;;;;;21.06;43.45;101472.59;5079625;28;4196;-60
2022/02/03 01:08:21;;;;;;;;;;;;;;;21.07;43.53;101488.50;5077141;28;4177;-59
2022/02/03 01:10:56;;;;;;;;;;;;;;;21.08;43.52;101483.47;5064092;28;4289;-60
2022/02/03 01:13:39;;;;;;;;;;;;;;;21.05;43.65;101476.88;5082275;28;4197;-59
2022/02/03 01:16:20;;;;;;;;;;;;;;;21.05;43.61;101476.88;5062964;28;4248;-60
2022/02/03 01:43:22;;;;;;;;;;;;;;;21.03;43.17;101473.88;5081029;28;5256;-59
2022/02/03 01:45:52;;;;;;;;;;;;;;;21.02;43.22;101468.75;5066944;28;5695;-59
2022/02/03 01:53:39;;;;;;;;;;;;;;;21.02;43.24;101465.88;5074832;28;4201;-59
2022/02/03 01:56:06;;;;;;;;;;;;;;;21.00;43.17;101454.25;5085466;28;4207;-60
2022/02/03 01:58:45;;;;;;;;;;;;;;;21.02;42.96;101451.47;5080957;28;4371;-59
2022/02/03 02:01:12;;;;;;;;;;;;;;;21.00;43.31;101457.84;5080540;28;4061;-60
2022/02/03 02:03:39;;;;;;;;;;;;;;;21.02;43.24;101460.09;5079975;28;4107;-60
2022/02/03 02:06:28;;;;;;;;;;;;;;;21.01;43.15;101452.88;5082382;28;4193;-60
2022/02/03 02:09:06;;;;;;;;;;;;;;;21.03;43.07;101461.63;5060552;28;4256;-68
2022/02/03 02:12:03;;;;;;;;;;;;;;;21.01;43.37;101461.50;5081345;28;4209;-59
2022/02/03 02:17:46;;;;;;;;;;;;;;;21.01;43.08;101453.59;5063927;28;4236;-60
2022/02/03 02:36:50;;;;;;;;;;;;;;;21.01;43.09;101452.88;5080936;28;4140;-59
2022/02/03 02:40:06;;;;;;;;;;;;;;;21.01;43.34;101426.97;4986093;28;5435;-60
2022/02/03 02:42:39;;;;;;;;;;;;;;;21.01;43.36;101421.19;5077549;28;4219;-59
2022/02/03 02:45:07;;;;;;;;;;;;;;;21.01;43.34;101424.06;5077841;28;4170;-60
2022/02/03 02:47:42;;;;;;;;;;;;;;;20.99;43.12;101410.31;5082363;28;4341;-60
2022/02/03 02:50:22;;;;;;;;;;;;;;;21.00;43.11;101408.16;5084051;28;5414;-59
2022/02/03 02:52:55;;;;;;;;;;;;;;;20.99;43.16;101398.06;5079059;28;4069;-59
2022/02/03 03:31:34;;;;;;;;;;;;;;;21.00;43.18;101362.84;5082767;28;4153;-60
2022/02/03 03:34:12;;;;;;;;;;;;;;;21.00;43.22;101371.47;5058908;28;4698;-59
2022/02/03 03:36:41;;;;;;;;;;;;;;;21.01;42.97;101366.50;5062897;28;4067;-59
2022/02/03 03:39:08;;;;;;;;;;;;;;;21.00;43.07;101371.47;5066205;28;4180;-59
2022/02/03 03:41:35;;;;;;;;;;;;;;;21.00;43.04;101368.59;5058155;28;4049;-59
2022/02/03 03:44:03;;;;;;;;;;;;;;;20.98;43.19;101367.75;5066020;28;4098;-60
2022/02/03 03:46:31;;;;;;;;;;;;;;;20.99;43.08;101363.50;5064559;28;4678;-59
2022/02/03 03:49:16;;;;;;;;;;;;;;;21.00;43.13;101376.50;5066930;28;4255;-60
2022/02/03 03:51:46;;;;;;;;;;;;;;;20.97;43.27;101372.78;5064145;28;4416;-60
2022/02/03 03:54:18;;;;;;;;;;;;;;;21.00;43.28;101377.25;5062846;28;4165;-59
2022/02/03 04:00:12;;;;;;;;;;;;;;;21.02;43.17;101373.72;5032653;28;4341;-59
2022/02/03 04:31:56;;;;;;;;;;;;;;;20.99;42.99;101349.84;5062575;28;5292;-59
2022/02/03 04:53:14;;;;;;;;;;;;;;;21.00;43.00;101334.06;5073944;28;4243;-59
2022/02/03 05:01:24;;;;;;;;;;;;;;;21.02;43.13;101330.53;5060600;28;6185;-61
2022/02/03 05:04:14;;;;;;;;;;;;;;;21.03;43.10;101332.03;5062120;28;4234;-59
2022/02/03 05:07:50;;;;;;;;;;;;;;;21.02;43.28;101330.53;5059398;28;4169;-59
2022/02/03 05:10:15;;;;;;;;;;;;;;;21.03;43.17;101329.16;5049434;28;5587;-60
2022/02/03 05:13:14;;;;;;;;;;;;;;;21.03;43.16;101329.16;5065652;28;4181;-60
2022/02/03 05:19:29;;;;;;;;;;;;;;;21.00;42.99;101311.03;5076276;28;5404;-59
2022/02/03 05:22:44;;;;;;;;;;;;;;;21.00;43.02;101313.16;5078805;28;4176;-59
2022/02/03 05:42:17;;;;;;;;;;;;;;;21.00;42.97;101301.63;5082150;28;4245;-59
2022/02/03 05:50:30;;;;;;;;;;;;;;;21.01;43.08;101303.16;5064078;28;4206;-59
2022/02/03 06:01:32;;;;;;;;;;;;;;;21.01;43.44;101298.13;5078408;28;5055;-59
2022/02/03 06:04:28;;;;;;;;;;;;;;;21.01;43.39;101285.88;5082228;28;4179;-60
2022/02/03 06:12:33;;;;;;;;;;;;;;;21.00;43.10;101272.84;5076973;28;4178;-60
2022/02/03 06:15:08;;;;;;;;;;;;;;;21.01;43.04;101271.47;5078746;28;5497;-60
2022/02/03 06:20:39;;;;;;;;;;;;;;;20.99;43.04;101271.38;5078250;28;6417;-59
2022/02/03 06:20:57;;;;;;;;;;;;;;;21.00;42.84;101264.22;5077995;28;4152;-60
2022/02/03 06:23:30;;;;;;;;;;;;;;;20.99;42.88;101265.63;5081358;28;4203;-59
2022/02/03 06:28:47;;;;;;;;;;;;;;;20.98;42.83;101259.13;5079139;28;4375;-59
2022/02/03 06:31:13;;;;;;;;;;;;;;;20.99;42.84;101259.84;5079777;28;4197;-59
2022/02/03 06:33:40;;;;;;;;;;;;;;;20.99;43.02;101254.09;5081964;28;4192;-59
2022/02/03 06:36:06;;;;;;;;;;;;;;;20.99;43.07;101248.34;5079506;28;4361;-60
2022/02/03 06:38:32;;;;;;;;;;;;;;;21.01;42.98;101262.84;5079235;28;4222;-60
2022/02/03 06:40:59;;;;;;;;;;;;;;;21.01;43.18;101252.06;5081177;28;4208;-59
2022/02/03 06:43:25;;;;;;;;;;;;;;;21.04;43.01;101261.53;5080590;28;4208;-59
2022/02/03 06:46:00;;;;;;;;;;;;;;;21.06;43.44;101250.13;5081003;28;5279;-60
2022/02/03 06:48:28;;;;;;;;;;;;;;;21.11;44.17;101254.69;5071396;28;4073;-59
2022/02/03 06:51:02;;;;;;;;;;;;;;;21.08;43.59;101250.22;5069758;28;5302;-70
2022/02/03 06:53:33;;;;;;;;;;;;;;;21.00;43.51;101249.81;5075133;28;4220;-59
2022/02/03 06:59:02;;;;;;;;;;;;;;;20.82;42.24;101241.78;5038956;28;5396;-61
2022/02/03 07:01:35;;;;;;;;;;;;;;;20.85;42.15;101243.34;5083559;28;4393;-60
2022/02/03 07:04:06;;;;;;;;;;;;;;;20.87;42.09;101248.47;5085089;28;4246;-60
2022/02/03 07:06:33;;;;;;;;;;;;;;;20.84;41.69;101244.72;5079736;28;5275;-59
2022/02/03 07:09:06;;;;;;;;;;;;;;;20.84;41.97;101233.22;5084158;28;4072;-60
2022/02/03 07:11:33;;;;;;;;;;;;;;;20.83;41.73;101234.63;5084216;28;4139;-59
2022/02/03 07:13:59;;;;;;;;;;;;;;;19.93;39.30;101250.06;5084871;28;4200;-60
2022/02/03 07:16:25;;;;;;;;;;;;;;;16.86;40.22;101248.72;5084668;28;4172;-58
2022/02/03 07:18:52;;;;;;;;;;;;;;;15.53;41.28;101248.06;5080201;28;4226;-58
2022/02/03 07:21:18;;;;;;;;;;;;;;;15.20;41.54;101257.09;5082637;28;4169;-58
2022/02/03 07:23:44;;;;;;;;;;;;;;;15.70;40.30;101250.72;5087557;28;5393;-57
2022/02/03 07:26:11;;;;;;;;;;;;;;;15.32;39.92;101252.28;5078535;28;4084;-58
2022/02/03 07:28:37;;;;;;;;;;;;;;;15.29;40.17;101254.25;5082289;28;4125;-58
2022/02/03 07:31:04;;;;;;;;;;;;;;;16.11;40.10;101242.22;5073747;28;5268;-64
2022/02/03 07:33:32;;;;;;;;;;;;;;;18.15;38.98;101239.78;5074950;28;4254;-63
2022/02/03 07:35:58;;;;;;;;;;;;;;;19.03;37.39;101233.53;5084031;28;5275;-64
2022/02/03 07:38:24;;;;;;;;;;;;;;;19.42;37.69;101232.84;5082143;28;4489;-64
2022/02/03 07:40:51;;;;;;;;;;;;;;;19.55;37.15;101235.03;5071893;28;4256;-65
2022/02/03 07:43:17;;;;;;;;;;;;;;;19.66;38.45;101224.84;5073148;28;4186;-64
2022/02/03 07:45:43;;;;;;;;;;;;;;;19.79;38.62;101226.28;5081914;28;5334;-63
2022/02/03 07:48:10;;;;;;;;;;;;;;;19.88;38.78;101220.34;5080578;28;4658;-63
2022/02/03 07:50:36;;;;;;;;;;;;;;;19.95;39.00;101223.53;5080173;28;4258;-61
2022/02/03 07:53:02;;;;;;;;;;;;;;;20.04;39.18;101225.47;5074911;28;5268;-59
2022/02/03 07:55:29;;;;;;;;;;;;;;;20.09;39.29;101227.19;5081494;28;4390;-64
2022/02/03 07:57:55;;;;;;;;;;;;;;;20.15;39.60;101221.75;5079253;28;4178;-65
2022/02/03 08:00:22;;;;;;;;;;;;;;;20.22;39.22;101217.06;5081425;28;5185;-65
2022/02/03 08:03:13;;;;;;;;;;;;;;;20.50;40.12;101212.78;5075985;28;4603;-68
2022/02/03 08:05:48;;;;;;;;;;;;;;;20.65;40.26;101216.41;5082412;28;4082;-68
2022/02/03 08:10:46;;;;;;;;;;;;;;;20.83;40.23;101207.97;5077152;28;4561;-64
2022/02/03 08:13:18;;;;;;;;;;;;;;;20.86;40.19;101200.91;5081522;28;4440;-64
2022/02/03 08:15:45;;;;;;;;;;;;;;;20.90;40.20;101201.84;5082569;28;4279;-64
2022/02/03 08:18:17;;;;;;;;;;;;;;;20.98;40.16;101206.53;5074297;28;5282;-61
2022/02/03 08:20:52;;;;;;;;;;;;;;;21.01;40.11;101206.00;5081820;28;4386;-61
2022/02/03 08:26:04;;;;;;;;;;;;;;;21.07;40.17;101191.91;5083078;28;4306;-61
2022/02/03 08:28:44;;;;;;;;;;;;;;;21.07;40.26;101196.91;5080995;28;4177;-60
2022/02/03 08:31:21;;;;;;;;;;;;;;;21.01;40.48;101191.59;5077559;28;4022;-60
2022/02/03 08:33:50;;;;;;;;;;;;;;;21.01;40.66;101196.63;5085013;28;4850;-59
2022/02/03 08:36:17;;;;;;;;;;;;;;;20.99;40.64;101193.63;5085645;28;5479;-70
2022/02/03 08:41:09;;;;;;;;;;;;;;;20.98;40.91;101183.50;5072271;28;4088;-65
2022/02/03 08:43:36;;;;;;;;;;;;;;;21.07;40.96;101180.38;5078123;28;4314;-68
2022/02/03 08:46:04;;;;;;;;;;;;;;;21.12;40.74;101178.44;5080650;28;4217;-62
2022/02/03 08:48:31;;;;;;;;;;;;;;;21.18;40.60;101167.19;5082313;28;4325;-61
2022/02/03 08:50:58;;;;;;;;;;;;;;;21.12;40.56;101169.81;5081193;28;4842;-68
2022/02/03 08:53:32;;;;;;;;;;;;;;;20.97;40.64;101170.50;5078342;28;4187;-68
2022/02/03 08:56:16;;;;;;;;;;;;;;;20.97;41.21;101167.63;5080003;28;4154;-64
2022/02/03 08:59:14;;;;;;;;;;;;;;;21.21;41.49;101153.63;5086184;28;5512;-63
2022/02/03 09:31:02;;;;;;;;;;;;;;;21.53;40.87;101148.69;5076365;28;4174;-61
2022/02/03 09:33:56;;;;;;;;;;;;;;;21.56;41.25;101135.13;5076446;28;4223;-65
2022/02/03 09:35:41;;;;;;;;;;;;;;;21.56;41.35;101135.88;5081919;28;4182;-65
2022/02/03 09:38:14;;;;;;;;;;;;;;;21.58;41.29;101138.84;5079898;28;4322;-67
2022/02/03 09:54:43;;;;;;;;;;;;;;;21.73;40.73;101120.78;5080848;28;5179;-60
2022/02/03 09:57:19;;;;;;;;;;;;;;;21.74;40.88;101121.56;5081160;28;4172;-65
2022/02/03 10:02:20;;;;;;;;;;;;;;;21.59;40.62;101123.03;5073525;28;4170;-71
2022/02/03 10:04:50;;;;;;;;;;;;;;;21.30;40.93;101118.84;5069461;28;4056;-68
2022/02/03 10:07:20;;;;;;;;;;;;;;;21.05;40.43;101116.19;5068735;28;4116;-63
2022/02/03 10:09:50;;;;;;;;;;;;;;;21.25;40.06;101120.00;5078651;28;4319;-64
2022/02/03 10:12:16;;;;;;;;;;;;;;;21.37;40.57;101114.06;5054980;28;4048;-64
2022/02/03 10:14:46;;;;;;;;;;;;;;;21.39;40.90;101108.41;5066426;28;4236;-65
2022/02/03 10:17:13;;;;;;;;;;;;;;;21.43;41.10;101105.00;5070625;28;4212;-65
2022/02/03 10:19:45;;;;;;;;;;;;;;;21.42;41.10;101109.28;5075171;28;4030;-66
2022/02/03 10:22:13;;;;;;;;;;;;;;;21.43;41.12;101094.22;5067265;28;4087;-69
2022/02/03 10:24:41;;;;;;;;;;;;;;;21.31;41.53;101094.38;5062709;28;4243;-64
2022/02/03 10:27:27;;;;;;;;;;;;;;;21.30;41.40;101089.25;5067380;28;4224;-71
2022/02/03 10:30:11;;;;;;;;;;;;;;;21.36;42.01;101092.44;5079000;28;5188;-70
2022/02/03 10:32:38;;;;;;;;;;;;;;;21.40;41.57;101084.00;5080238;28;6370;-69
2022/02/03 10:35:15;;;;;;;;;;;;;;;21.40;41.34;101063.09;5082131;28;4686;-68
2022/02/03 10:37:46;;;;;;;;;;;;;;;21.46;41.40;101075.66;5082811;28;4180;-65
2022/02/03 10:40:44;;;;;;;;;;;;;;;21.48;41.86;101066.34;5079192;28;4190;-64
2022/02/03 10:43:37;;;;;;;;;;;;;;;21.49;41.79;101062.09;5073191;28;5283;-64
2022/02/03 10:52:00;;;;;;;;;;;;;;;21.51;42.69;101059.28;5053008;28;4142;-67
2022/02/03 11:03:03;;;;;;;;;;;;;;;21.51;44.56;101047.75;5083402;28;4063;-68
2022/02/03 11:05:52;;;;;;;;;;;;;;;21.53;44.48;101042.06;5084091;28;4329;-68
2022/02/03 11:08:30;;;;;;;;;;;;;;;21.55;44.41;101042.16;5086799;28;4101;-65
2022/02/03 11:10:59;;;;;;;;;;;;;;;21.53;44.41;101050.72;5079270;28;4083;-65
2022/02/03 11:13:35;;;;;;;;;;;;;;;21.51;44.35;101050.66;5061504;28;4367;-65
2022/02/03 11:16:02;;;;;;;;;;;;;;;21.45;44.14;101045.34;5077303;28;4548;-70
2022/02/03 11:18:29;;;;;;;;;;;;;;;21.38;43.78;101043.56;5080663;28;4167;-64
2022/02/03 11:20:57;;;;;;;;;;;;;;;21.33;44.57;101039.00;5084737;28;4384;-66
2022/02/03 11:26:03;;;;;;;;;;;;;;;21.47;44.16;101027.41;5083376;28;4146;-66
2022/02/03 11:40:21;;;;;;;;;;;;;;;21.45;44.20;101021.56;5073827;28;4133;-79
2022/02/03 11:46:08;;;;;;;;;;;;;;;21.14;42.63;101011.50;5078054;28;4322;-63
2022/02/03 11:48:55;;;;;;;;;;;;;;;21.43;42.46;101007.78;5082992;28;4311;-63
2022/02/03 12:12:20;;;;;;;;;;;;;;;21.62;44.90;100974.75;5079896;28;4201;-63
2022/02/03 12:17:15;;;;;;;;;;;;;;;21.63;44.85;100964.72;5080250;28;4136;-63
2022/02/03 12:19:24;;;;;;;;;;;;;;;21.62;45.42;100965.38;5063258;28;4260;-63
2022/02/03 12:22:12;;;;;;;;;;;;;;;21.62;45.24;100960.34;5078280;28;4185;-62
2022/02/03 12:25:08;;;;;;;;;;;;;;;21.67;45.00;100962.03;5079220;28;4089;-67
2022/02/03 12:27:50;;;;;;;;;;;;;;;21.66;44.90;100949.00;5053234;28;4216;-62
2022/02/03 12:30:54;;;;;;;;;;;;;;;21.50;45.37;100951.94;5084624;28;4166;-66
2022/02/03 12:38:51;;;;;;;;;;;;;;;21.63;45.28;100956.09;5081374;28;3955;-66
2022/02/03 12:41:21;;;;;;;;;;;;;;;21.67;45.35;100941.84;5080155;28;4411;-69
2022/02/03 12:43:55;;;;;;;;;;;;;;;21.74;45.46;100937.81;5082526;28;4772;-67
2022/02/03 12:46:21;;;;;;;;;;;;;;;21.73;45.66;100936.31;5079302;28;4200;-65
2022/02/03 12:48:49;;;;;;;;;;;;;;;21.75;45.66;100930.66;5084088;28;4443;-67
2022/02/03 12:51:15;;;;;;;;;;;;;;;21.73;45.69;100930.56;5062616;28;4525;-66
2022/02/03 12:53:46;;;;;;;;;;;;;;;21.73;45.77;100924.78;5060544;28;4408;-65
2022/02/03 12:56:12;;;;;;;;;;;;;;;21.75;45.83;100924.88;5075072;28;4259;-66
2022/02/03 12:58:43;;;;;;;;;;;;;;;21.79;46.11;100915.66;5080881;28;4262;-65
2022/02/03 13:01:18;;;;;;;;;;;;;;;21.77;46.21;100909.09;5079419;28;4234;-63
2022/02/03 13:03:48;;;;;;;;;;;;;;;21.84;46.19;100910.81;5073525;28;4336;-72
2022/02/03 13:06:17;;;;;;;;;;;;;;;21.92;46.06;100908.25;5081499;28;4180;-71
2022/02/03 13:08:48;;;;;;;;;;;;;;;21.93;46.37;100907.59;5079045;28;4129;-75
2022/02/03 13:16:24;;;;;;;;;;;;;;;21.54;44.67;100908.88;5082333;28;4118;-75
2022/02/03 13:19:01;;;;;;;;;;;;;;;21.54;46.24;100905.28;5081961;28;4246;-68
2022/02/03 13:21:50;;;;;;;;;;;;;;;21.73;46.58;100898.84;5075906;28;4018;-65
2022/02/03 13:26:57;;;;;;;;;;;;;;;21.87;46.74;100886.44;5076147;28;4307;-68
2022/02/03 13:29:33;;;;;;;;;;;;;;;21.88;47.47;100876.41;5074332;28;4243;-69
2022/02/03 13:32:06;;;;;;;;;;;;;;;21.78;47.01;100873.09;5072883;28;4791;-67
2022/02/03 13:34:49;;;;;;;;;;;;;;;21.72;47.61;100871.44;5080645;28;4157;-71
2022/02/03 13:37:23;;;;;;;;;;;;;;;21.70;47.63;100865.59;5079833;28;4530;-71
2022/02/03 13:40:01;;;;;;;;;;;;;;;21.69;47.62;100866.25;5079007;28;5400;-71
2022/02/03 13:42:30;;;;;;;;;;;;;;;21.70;47.20;100867.75;5073019;28;4159;-73
2022/02/03 13:45:06;;;;;;;;;;;;;;;21.66;47.57;100865.41;5080939;28;4215;-68
2022/02/03 13:47:35;;;;;;;;;;;;;;;21.77;47.49;100862.97;5079042;28;4231;-63
2022/02/03 13:50:03;;;;;;;;;;;;;;;21.90;47.35;100864.94;5076718;28;4144;-65
2022/02/03 13:52:40;;;;;;;;;;;;;;;21.93;46.81;100861.47;5071005;28;4412;-63
2022/02/03 14:15:22;;;;;;;;;;;;;;;22.10;46.68;100848.44;5065450;28;4232;-68
2022/02/03 14:20:40;;;;;;;;;;;;;;;22.15;46.17;100841.44;5080483;28;4062;-65
2022/02/03 14:28:19;;;;;;;;;;;;;;;22.23;46.39;100840.28;5079571;28;4992;-65
2022/02/03 14:30:49;;;;;;;;;;;;;;;22.27;46.49;100831.81;5080816;28;4164;-62
2022/02/03 14:33:18;;;;;;;;;;;;;;;22.29;46.17;100831.88;5066997;28;4392;-62
2022/02/03 14:35:47;;;;;;;;;;;;;;;22.27;46.69;100829.66;5078184;28;4570;-63
2022/02/03 14:38:25;;;;;;;;;;;;;;;22.32;46.38;100827.66;5074729;28;4159;-62
2022/02/03 14:43:22;;;;;;;;;;;;;;;22.28;46.18;100816.69;5073568;28;4250;-64
2022/02/03 14:45:48;;;;;;;;;;;;;;;22.28;45.96;100818.84;5072510;28;4250;-64
2022/02/03 14:48:16;;;;;;;;;;;;;;;22.28;46.08;100819.56;5078682;28;4181;-64
2022/02/03 14:50:43;;;;;;;;;;;;;;;22.29;45.75;100811.69;5082202;28;4165;-64
2022/02/03 14:53:19;;;;;;;;;;;;;;;22.20;45.67;100804.84;5067045;28;4151;-70
2022/02/03 14:58:31;;;;;;;;;;;;;;;22.24;46.28;100802.13;5078417;28;4371;-61
2022/02/03 15:00:58;;;;;;;;;;;;;;;22.28;45.76;100804.41;5079869;28;4158;-62
2022/02/03 15:03:24;;;;;;;;;;;;;;;22.40;46.12;100807.00;5077058;28;4150;-61
2022/02/03 15:05:52;;;;;;;;;;;;;;;22.41;45.81;100797.72;5082380;28;4229;-61
2022/02/03 15:11:26;;;;;;;;;;;;;;;22.56;45.80;100791.06;5033159;28;4136;-60
2022/02/03 15:13:53;;;;;;;;;;;;;;;22.58;45.42;100794.00;5079811;28;4130;-60
2022/02/03 15:16:19;;;;;;;;;;;;;;;22.61;45.61;100796.94;5063241;28;4141;-62
2022/02/03 15:19:06;;;;;;;;;;;;;;;22.59;45.44;100780.31;5071478;28;4240;-62
2022/02/03 15:21:32;;;;;;;;;;;;;;;22.59;45.72;100786.81;5075135;28;4220;-60
2022/02/03 15:23:58;;;;;;;;;;;;;;;22.64;45.69;100778.31;5073559;28;4241;-61
2022/02/03 15:26:26;;;;;;;;;;;;;;;22.54;45.84;100776.56;5077854;28;4071;-62
2022/02/03 15:28:53;;;;;;;;;;;;;;;22.54;45.81;100779.44;5078055;28;4639;-63
2022/02/03 15:31:22;;;;;;;;;;;;;;;22.55;45.38;100771.50;5057533;28;4309;-62
2022/02/03 15:33:59;;;;;;;;;;;;;;;22.56;46.03;100770.09;5060221;28;4160;-67
2022/02/03 15:36:27;;;;;;;;;;;;;;;22.52;45.46;100779.34;5068635;28;4229;-68
2022/02/03 15:38:55;;;;;;;;;;;;;;;22.50;45.72;100778.56;5076987;28;4264;-68
2022/02/03 15:41:26;;;;;;;;;;;;;;;22.50;45.71;100770.63;5070223;28;4143;-67
2022/02/03 15:43:54;;;;;;;;;;;;;;;22.52;46.48;100773.59;5065083;28;5338;-63
2022/02/03 15:46:22;;;;;;;;;;;;;;;22.54;46.01;100776.56;5059388;28;4158;-66
2022/02/03 15:49:01;;;;;;;;;;;;;;;22.55;45.83;100774.41;5061633;28;4138;-62
2022/02/03 16:13:24;;;;;;;;;;;;;;;22.55;46.18;100762.84;5075385;28;4151;-62
2022/02/03 16:18:36;;;;;;;;;;;;;;;22.67;46.00;100765.44;5042195;28;4182;-64
2022/02/03 16:21:29;;;;;;;;;;;;;;;22.77;45.80;100757.13;5037406;28;4499;-64
2022/02/03 16:24:04;;;;;;;;;;;;;;;22.80;45.91;100755.78;5067398;28;4566;-67
2022/02/03 16:26:59;;;;;;;;;;;;;;;22.78;45.70;100764.38;5075637;28;4496;-65
2022/02/03 16:41:06;;;;;;;;;;;;;;;22.76;45.72;100762.16;5077937;28;4062;-66
2022/02/03 16:50:19;;;;;;;;;;;;;;;22.75;45.85;100771.50;5070305;28;4108;-67
2022/02/03 16:52:12;;;;;;;;;;;;;;;22.24;45.25;100743.69;5077379;28;4305;-66
2022/02/03 16:54:38;;;;;;;;;;;;;;;22.23;45.62;100742.22;5078727;28;4156;-67
2022/02/03 16:57:12;;;;;;;;;;;;;;;22.30;45.68;100738.88;5078228;28;4521;-60
2022/02/03 16:59:47;;;;;;;;;;;;;;;22.34;45.28;100741.94;5075682;28;4140;-61
2022/02/03 17:02:15;;;;;;;;;;;;;;;22.37;45.60;100736.97;5074436;28;4152;-62
2022/02/03 17:04:48;;;;;;;;;;;;;;;22.36;45.26;100732.63;5079756;28;4121;-62
2022/02/03 17:07:14;;;;;;;;;;;;;;;22.38;45.15;100741.34;5082768;28;4135;-61
2022/02/03 17:09:40;;;;;;;;;;;;;;;22.37;45.41;100740.59;5081080;28;4556;-61
2022/02/03 17:12:07;;;;;;;;;;;;;;;22.37;45.44;100728.31;5078525;28;4193;-62
2022/02/03 17:14:33;;;;;;;;;;;;;;;22.39;45.53;100739.94;5079465;28;4290;-60
2022/02/03 17:17:00;;;;;;;;;;;;;;;22.40;45.65;100734.88;5081296;28;6427;-64
2022/02/03 17:19:26;;;;;;;;;;;;;;;22.47;45.26;100720.03;5071942;28;4240;-62
2022/02/03 17:21:52;;;;;;;;;;;;;;;22.41;45.74;100722.69;5072518;28;4173;-63
2022/02/03 17:24:20;;;;;;;;;;;;;;;22.36;45.33;100726.84;5076396;28;3985;-61
2022/02/03 17:27:00;;;;;;;;;;;;;;;22.33;45.55;100719.50;5074049;28;5268;-61
2022/02/03 17:30:14;;;;;;;;;;;;;;;22.33;45.68;100728.16;5076708;28;5373;-61
2022/02/03 17:45:03;;;;;;;;;;;;;;;22.31;45.34;100725.97;5052395;28;4195;-62
2022/02/03 18:06:17;;;;;;;;;;;;;;;22.24;45.03;100720.63;5061091;28;5744;-60
2022/02/03 18:29:48;;;;;;;;;;;;;;;22.26;45.07;100694.72;5078272;28;4122;-59
2022/02/03 18:51:16;;;;;;;;;;;;;;;21.90;44.79;100671.81;5079995;28;5188;-65
2022/02/03 18:56:28;;;;;;;;;;;;;;;21.87;44.84;100678.88;5078688;28;5032;-61
2022/02/03 18:59:10;;;;;;;;;;;;;;;21.65;44.77;100670.16;5086995;28;4162;-60
2022/02/03 19:15:49;;;;;;;;;;;;;;;21.49;44.43;100661.63;5082579;28;4287;-61
2022/02/03 19:24:26;;;;;;;;;;;;;;;21.54;44.00;100652.47;5085329;28;4299;-60
2022/02/03 19:58:14;;;;;;;;;;;;;;;21.60;45.03;100628.91;5077203;28;4080;-61
2022/02/03 20:05:54;;;;;;;;;;;;;;;21.60;44.89;100616.63;5078082;28;4127;-62
2022/02/03 20:10:49;;;;;;;;;;;;;;;21.59;45.12;100618.03;5082081;28;4178;-61
2022/02/03 20:13:16;;;;;;;;;;;;;;;21.57;45.04;100615.09;5078120;28;4658;-61
2022/02/03 20:15:43;;;;;;;;;;;;;;;21.57;45.07;100612.94;5078967;28;5526;-62
2022/02/03 20:18:11;;;;;;;;;;;;;;;21.56;45.07;100605.72;5076836;28;4100;-62
2022/02/03 20:20:38;;;;;;;;;;;;;;;21.56;45.38;100605.72;5080196;28;4533;-62
2022/02/03 20:23:08;;;;;;;;;;;;;;;21.57;45.33;100600.69;5077611;28;4132;-62
2022/02/03 20:25:36;;;;;;;;;;;;;;;21.58;45.27;100610.78;5075150;28;4066;-62
2022/02/03 20:28:05;;;;;;;;;;;;;;;21.57;45.10;100606.44;5078636;28;4192;-62
2022/02/03 20:30:31;;;;;;;;;;;;;;;21.54;45.15;100608.50;5081405;28;4086;-61
2022/02/03 20:32:57;;;;;;;;;;;;;;;21.54;45.12;100594.84;5076891;28;5262;-61
2022/02/03 20:35:24;;;;;;;;;;;;;;;21.52;45.14;100594.75;5077238;28;5342;-61
2022/02/03 20:37:50;;;;;;;;;;;;;;;21.53;45.08;100601.25;5080890;28;5084;-62
2022/02/03 20:40:17;;;;;;;;;;;;;;;21.54;45.09;100585.47;5080134;28;4151;-61
2022/02/03 20:42:43;;;;;;;;;;;;;;;21.54;44.98;100596.97;5076483;28;4236;-62
2022/02/03 20:45:10;;;;;;;;;;;;;;;21.52;45.18;100594.75;5073013;28;4212;-61
2022/02/03 20:47:36;;;;;;;;;;;;;;;21.53;45.25;100589.72;5080292;28;4171;-61
2022/02/03 20:50:04;;;;;;;;;;;;;;;21.53;45.39;100589.72;5075508;28;3978;-61
2022/02/03 20:52:30;;;;;;;;;;;;;;;21.50;45.20;100586.03;5077062;28;4038;-62
2022/02/03 20:54:56;;;;;;;;;;;;;;;21.51;45.12;100581.03;5074409;28;5059;-62
2022/02/03 20:57:24;;;;;;;;;;;;;;;21.50;44.96;100577.41;5072474;28;4227;-61
2022/02/03 21:02:33;;;;;;;;;;;;;;;21.50;45.50;100585.31;5072503;28;5218;-62
2022/02/03 21:05:05;;;;;;;;;;;;;;;21.50;45.54;100591.06;5075946;28;4138;-62
2022/02/03 21:07:32;;;;;;;;;;;;;;;21.51;45.67;100581.75;5077969;28;4233;-61
2022/02/03 21:10:01;;;;;;;;;;;;;;;21.50;45.56;100585.31;5074074;28;4227;-62
2022/02/03 21:12:29;;;;;;;;;;;;;;;21.50;45.43;100582.44;5076585;28;4495;-61
2022/02/03 21:14:56;;;;;;;;;;;;;;;21.51;45.53;100581.03;5076188;28;5213;-63
2022/02/03 21:17:24;;;;;;;;;;;;;;;21.49;45.32;100583.84;5081398;28;4202;-62
2022/02/03 21:19:50;;;;;;;;;;;;;;;21.49;45.31;100578.81;5074064;28;4583;-62
2022/02/03 21:22:16;;;;;;;;;;;;;;;21.50;45.33;100582.44;5072595;28;5135;-62
2022/02/03 21:24:43;;;;;;;;;;;;;;;21.49;45.42;100572.31;5078389;28;5297;-61
2022/02/03 21:27:18;;;;;;;;;;;;;;;21.49;45.42;100583.84;5070221;28;4154;-62
2022/02/03 21:29:45;;;;;;;;;;;;;;;21.49;45.37;100584.56;5075848;28;4153;-61
2022/02/03 21:32:11;;;;;;;;;;;;;;;21.47;45.36;100598.91;5075200;28;4185;-61
2022/02/03 21:34:37;;;;;;;;;;;;;;;21.46;45.59;100599.56;5073616;28;4142;-61
2022/02/03 21:37:04;;;;;;;;;;;;;;;21.46;45.69;100603.19;5076121;28;4393;-61
2022/02/03 21:39:30;;;;;;;;;;;;;;;21.45;45.51;100601.69;5075743;28;4322;-61
2022/02/03 21:41:56;;;;;;;;;;;;;;;21.46;45.47;100591.66;5074374;28;4158;-61
2022/02/03 21:44:27;;;;;;;;;;;;;;;21.46;45.46;100590.91;5076839;28;4064;-61
2022/02/03 21:46:54;;;;;;;;;;;;;;;21.43;45.68;100586.47;5077481;28;4222;-61
2022/02/03 21:49:23;;;;;;;;;;;;;;;21.43;45.51;100587.22;5069697;28;4273;-61
2022/02/03 21:51:52;;;;;;;;;;;;;;;21.45;45.29;100583.69;5070697;28;4206;-61
2022/02/03 21:54:19;;;;;;;;;;;;;;;21.43;45.56;100581.44;5079128;28;4130;-61
2022/02/03 21:56:48;;;;;;;;;;;;;;;21.44;45.45;100587.94;5078551;28;4343;-61
2022/02/03 21:59:15;;;;;;;;;;;;;;;21.44;45.38;100582.19;5083018;28;4261;-61
2022/02/03 22:01:43;;;;;;;;;;;;;;;21.42;45.72;100579.25;5076390;28;4201;-61
2022/02/03 22:04:09;;;;;;;;;;;;;;;21.41;45.73;100578.50;5076766;28;4338;-61
2022/02/03 22:06:35;;;;;;;;;;;;;;;21.42;45.75;100582.13;5075144;28;4243;-61
2022/02/03 22:09:03;;;;;;;;;;;;;;;21.42;45.75;100574.22;5077897;28;4196;-62
2022/02/03 22:11:29;;;;;;;;;;;;;;;21.42;45.69;100574.22;5083949;28;5300;-61
2022/02/03 22:13:55;;;;;;;;;;;;;;;21.42;45.73;100582.13;5083317;28;4220;-62
2022/02/03 22:16:25;;;;;;;;;;;;;;;21.41;45.65;100586.41;5084428;28;4183;-61
2022/02/03 22:18:52;;;;;;;;;;;;;;;21.41;45.60;100584.25;5087437;28;6398;-61
2022/02/03 22:38:28;;;;;;;;;;;;;;;21.40;45.55;100582.03;5084588;28;4073;-61
2022/02/03 22:42:50;;;;;;;;;;;;;;;21.37;45.59;100566.78;5078041;28;5358;-61